Terminal Aerodrome Forecast
Issued by NWS Twin Cities, MN

Home | Current Version | Previous Version | Text Only | Print | Product List | Glossary On
Versions: 1 2 3 4 5 6 7 8 9 10 11 12 13 14 15 16 17 18 19 20 21 22 23 24 25 26 27 28 29 30 31 32 33
000
FTUS43 KMPX 011720
TAFMSP
TAF
KMSP 011720Z 0118/0224 11007KT P6SM SCT120 BKN250
     FM012000 11008KT P6SM FEW120 SCT250
     FM020800 11004KT P6SM BKN150
     FM021600 14007KT P6SM FEW050 SCT250=

USA.gov is the U.S. government's official web portal to all federal, state and local government web resources and services.